Terminal Aerodrome Forecast
Issued by NWS Memphis, TN

Home | Current Version | Previous Version | Text Only | Print | Product List | Glossary On
Versions: 1 2 3 4 5 6 7 8 9 10 11 12 13 14
000
FTUS44 KMEG 232300
TAFJBR
TAF
KJBR 232327Z 2400/2424 29005KT P6SM SCT150 BKN250
     FM240400 02008KT P6SM SCT020 SCT250
      TEMPO 2409/2413 BKN020
     FM241400 04010KT P6SM SCT030=

USA.gov is the U.S. government's official web portal to all federal, state and local government web resources and services.